createdAt,value
2023-06-19T00:00:25.126Z,16
2023-06-19T00:02:56.287Z,19
2023-06-19T00:05:26.627Z,16
2023-06-19T00:07:57.863Z,20
2023-06-19T00:10:29.044Z,16
2023-06-19T00:12:59.610Z,16
2023-06-19T00:15:30.580Z,16
2023-06-19T00:18:00.979Z,16
2023-06-19T00:20:31.483Z,16
2023-06-19T00:23:02.298Z,16
2023-06-19T00:25:32.256Z,19
2023-06-19T00:28:02.710Z,16
2023-06-19T00:30:33.100Z,16
2023-06-19T00:33:03.843Z,16
2023-06-19T00:35:34.239Z,16
2023-06-19T00:38:05.260Z,16
2023-06-19T00:40:36.124Z,16
2023-06-19T00:43:07.311Z,16
2023-06-19T00:45:37.738Z,16
2023-06-19T00:48:08.514Z,16
2023-06-19T00:50:39.890Z,16
2023-06-19T00:53:09.378Z,19
2023-06-19T00:55:40.162Z,16
2023-06-19T00:58:12.235Z,16
2023-06-19T01:00:52.885Z,20
2023-06-19T01:03:18.549Z,16
2023-06-19T01:05:46.940Z,16
2023-06-19T01:08:17.779Z,16
2023-06-19T01:10:48.389Z,16
2023-06-19T01:13:20.729Z,16
2023-06-19T01:15:52.503Z,15
2023-06-19T01:18:23.401Z,18
2023-06-19T01:20:54.711Z,20
2023-06-19T01:23:25.425Z,16
2023-06-19T01:25:56.296Z,16
2023-06-19T01:28:26.913Z,16
2023-06-19T01:30:57.896Z,16
2023-06-19T01:33:28.788Z,12
2023-06-19T01:35:59.601Z,16
2023-06-19T01:38:30.723Z,16
2023-06-19T01:41:01.549Z,16
2023-06-19T01:43:32.208Z,16
2023-06-19T01:46:03.428Z,16
2023-06-19T01:48:35.460Z,16
2023-06-19T01:51:06.030Z,16
2023-06-19T01:53:36.755Z,16
2023-06-19T01:56:07.413Z,16
2023-06-19T01:58:40.932Z,16
2023-06-19T02:01:11.690Z,16
2023-06-19T02:03:44.357Z,16
2023-06-19T02:06:15.224Z,16
2023-06-19T02:08:46.297Z,16
2023-06-19T02:11:17.101Z,13
2023-06-19T02:13:47.564Z,16
2023-06-19T02:16:19.244Z,16
2023-06-19T02:18:49.779Z,12
2023-06-19T02:21:20.643Z,16
2023-06-19T02:23:51.658Z,16
2023-06-19T02:26:22.561Z,18
2023-06-19T02:28:53.350Z,13
2023-06-19T02:31:24.110Z,12
2023-06-19T02:33:54.195Z,13
2023-06-19T02:36:25.184Z,16
2023-06-19T02:38:55.999Z,16
2023-06-19T02:41:26.737Z,17
2023-06-19T02:43:57.805Z,18
2023-06-19T02:46:28.579Z,16
2023-06-19T02:48:59.112Z,15
2023-06-19T02:51:29.723Z,14
2023-06-19T02:54:00.753Z,16
2023-06-19T02:56:31.930Z,16
2023-06-19T02:59:03.140Z,15
2023-06-19T03:01:33.981Z,13
2023-06-19T03:04:05.528Z,16
2023-06-19T03:06:36.720Z,14
2023-06-19T03:09:07.398Z,16
2023-06-19T03:11:38.378Z,16
2023-06-19T03:14:10.637Z,16
2023-06-19T03:16:41.536Z,16
2023-06-19T03:19:12.804Z,16
2023-06-19T03:21:43.696Z,16
2023-06-19T03:24:14.608Z,12
2023-06-19T03:26:45.410Z,16
2023-06-19T03:29:15.886Z,16
2023-06-19T03:31:47.405Z,12
2023-06-19T03:34:18.239Z,12
2023-06-19T03:36:50.898Z,16
2023-06-19T03:39:22.697Z,12
2023-06-19T03:41:53.692Z,12
2023-06-19T03:44:24.251Z,16
2023-06-19T03:46:55.561Z,16
2023-06-19T03:49:26.360Z,16
2023-06-19T03:51:56.915Z,12
2023-06-19T03:54:28.046Z,12
2023-06-19T03:57:00.524Z,16
2023-06-19T03:59:32.313Z,15
2023-06-19T04:02:02.847Z,17
2023-06-19T04:04:33.397Z,18
2023-06-19T04:07:03.534Z,16
2023-06-19T04:09:32.845Z,16
2023-06-19T04:12:05.504Z,18
2023-06-19T04:14:36.337Z,16
2023-06-19T04:17:07.072Z,20
2023-06-19T04:19:37.739Z,20
2023-06-19T04:22:08.414Z,20
2023-06-19T04:24:39.562Z,20
2023-06-19T04:27:10.360Z,20
2023-06-19T04:29:41.881Z,20
2023-06-19T04:32:13.002Z,20
2023-06-19T04:34:43.570Z,16
2023-06-19T04:37:14.540Z,16
2023-06-19T04:39:45.608Z,20
2023-06-19T04:42:16.490Z,24
2023-06-19T04:44:45.997Z,20
2023-06-19T04:47:18.002Z,20
2023-06-19T04:49:49.118Z,20
2023-06-19T04:52:21.083Z,20
2023-06-19T04:54:51.718Z,20
2023-06-19T04:57:22.399Z,16
2023-06-19T04:59:53.485Z,20
2023-06-19T05:02:24.151Z,21
2023-06-19T05:04:54.814Z,24
2023-06-19T05:07:26.537Z,20
2023-06-19T05:09:58.293Z,20
2023-06-19T05:12:28.977Z,20
2023-06-19T05:14:59.915Z,20
2023-06-19T05:17:30.599Z,20
2023-06-19T05:20:02.186Z,19
2023-06-19T05:22:32.751Z,20
2023-06-19T05:25:03.386Z,20
2023-06-19T05:27:33.885Z,20
2023-06-19T05:30:04.666Z,16
2023-06-19T05:32:37.111Z,16
2023-06-19T05:35:08.148Z,16
2023-06-19T05:37:38.809Z,16
2023-06-19T05:40:09.723Z,16
2023-06-19T05:42:40.125Z,16
2023-06-19T05:45:10.697Z,13
2023-06-19T05:47:41.801Z,16
2023-06-19T05:50:12.993Z,16
2023-06-19T05:52:44.868Z,16
2023-06-19T05:55:16.152Z,16
2023-06-19T05:57:48.934Z,16
2023-06-19T06:00:19.591Z,16
2023-06-19T06:02:50.744Z,16
2023-06-19T06:05:21.239Z,16
2023-06-19T06:07:52.652Z,16
2023-06-19T06:10:23.967Z,16
2023-06-19T06:12:54.909Z,16
2023-06-19T06:15:25.509Z,14
2023-06-19T06:17:56.345Z,16
2023-06-19T06:20:26.955Z,16
2023-06-19T06:22:58.056Z,19
2023-06-19T06:25:29.465Z,16
2023-06-19T06:27:59.662Z,16
2023-06-19T06:30:30.260Z,16
2023-06-19T06:33:00.887Z,12
2023-06-19T06:35:32.071Z,16
2023-06-19T06:38:03.021Z,16
2023-06-19T06:40:34.243Z,16
2023-06-19T06:43:05.017Z,12
2023-06-19T06:45:35.938Z,12
2023-06-19T06:48:06.605Z,12
2023-06-19T06:50:37.734Z,12
2023-06-19T06:53:10.412Z,16
2023-06-19T06:55:41.329Z,12
2023-06-19T06:58:11.801Z,15
2023-06-19T07:00:42.557Z,12
2023-06-19T07:03:13.396Z,12
2023-06-19T07:05:43.945Z,12
2023-06-19T07:08:14.652Z,13
2023-06-19T07:10:45.346Z,12
2023-06-19T07:13:15.976Z,15
2023-06-19T07:15:47.250Z,12
2023-06-19T07:18:17.848Z,12
2023-06-19T07:20:48.146Z,13
2023-06-19T07:23:18.837Z,16
2023-06-19T07:25:49.733Z,16
2023-06-19T07:28:20.624Z,16
2023-06-19T07:30:55.622Z,12
2023-06-19T07:33:25.265Z,12
2023-06-19T07:35:56.813Z,11
2023-06-19T07:38:34.045Z,15
2023-06-19T07:41:06.025Z,12
2023-06-19T07:43:36.869Z,12
2023-06-19T07:46:07.775Z,12
2023-06-19T07:48:39.408Z,12
2023-06-19T07:51:10.357Z,16
2023-06-19T07:53:42.175Z,12
2023-06-19T07:56:13.097Z,16
2023-06-19T07:58:44.103Z,12
2023-06-19T08:01:16.202Z,12
2023-06-19T08:03:47.234Z,16
2023-06-19T08:06:17.628Z,13
2023-06-19T08:08:48.578Z,12
2023-06-19T08:11:19.987Z,12
2023-06-19T08:13:50.837Z,12
2023-06-19T08:16:23.476Z,12
2023-06-19T08:18:55.566Z,14
2023-06-19T08:21:25.992Z,14
2023-06-19T08:23:57.724Z,16
2023-06-19T08:26:28.338Z,13
2023-06-19T08:28:58.528Z,12
2023-06-19T08:31:29.322Z,12
2023-06-19T08:34:00.176Z,15
2023-06-19T08:36:30.809Z,13
2023-06-19T08:39:01.554Z,16
2023-06-19T08:41:34.280Z,14
2023-06-19T08:44:04.965Z,12
2023-06-19T08:46:35.861Z,16
2023-06-19T08:49:06.408Z,16
2023-06-19T08:51:37.313Z,16
2023-06-19T08:54:08.137Z,14
2023-06-19T08:56:38.726Z,12
2023-06-19T08:59:09.322Z,16
2023-06-19T09:01:39.682Z,15
2023-06-19T09:04:10.123Z,12
2023-06-19T09:06:42.472Z,16
2023-06-19T09:09:14.235Z,16
2023-06-19T09:11:45.112Z,15
2023-06-19T09:14:15.945Z,12
2023-06-19T09:16:46.761Z,12
2023-06-19T09:19:17.666Z,14
2023-06-19T09:21:48.509Z,12
2023-06-19T09:24:19.096Z,12
2023-06-19T09:26:49.821Z,13
2023-06-19T09:29:21.694Z,12
2023-06-19T09:31:52.179Z,12
2023-06-19T09:34:22.715Z,12
2023-06-19T09:36:53.566Z,16
2023-06-19T09:39:24.178Z,16
2023-06-19T09:41:54.892Z,13
2023-06-19T09:44:25.481Z,12
2023-06-19T09:46:56.028Z,16
2023-06-19T09:49:27.099Z,15
2023-06-19T09:51:57.559Z,16
2023-06-19T09:54:28.112Z,16
2023-06-19T09:56:58.970Z,16
2023-06-19T09:59:30.539Z,14
2023-06-19T10:02:01.150Z,12
2023-06-19T10:04:31.769Z,15
2023-06-19T10:07:02.762Z,12
2023-06-19T10:09:33.542Z,16
2023-06-19T10:12:04.381Z,12
2023-06-19T10:14:35.027Z,12
2023-06-19T10:17:06.243Z,16
2023-06-19T10:19:37.265Z,12
2023-06-19T10:22:08.027Z,16
2023-06-19T10:24:38.511Z,13
2023-06-19T10:27:09.454Z,16
2023-06-19T10:29:40.029Z,16
2023-06-19T10:32:10.738Z,12
2023-06-19T10:34:41.910Z,12
2023-06-19T10:37:12.576Z,16
2023-06-19T10:39:43.088Z,17
2023-06-19T10:42:13.889Z,14
2023-06-19T10:44:44.276Z,16
2023-06-19T10:47:15.084Z,12
2023-06-19T10:49:45.729Z,13
2023-06-19T10:52:16.523Z,12
2023-06-19T10:54:47.916Z,12
2023-06-19T10:57:19.250Z,12
2023-06-19T10:59:50.111Z,15
2023-06-19T11:02:22.722Z,12
2023-06-19T11:04:53.684Z,12
2023-06-19T11:07:23.739Z,12
2023-06-19T11:09:54.017Z,16
2023-06-19T11:12:24.444Z,16
2023-06-19T11:14:55.053Z,15
2023-06-19T11:17:25.742Z,16
2023-06-19T11:19:57.330Z,16
2023-06-19T11:22:28.024Z,12
2023-06-19T11:25:02.500Z,12
2023-06-19T11:27:34.458Z,12
2023-06-19T11:30:05.064Z,15
2023-06-19T11:32:38.007Z,13
2023-06-19T11:35:08.892Z,13
2023-06-19T11:37:39.298Z,16
2023-06-19T11:40:14.485Z,14
2023-06-19T11:42:46.032Z,13
2023-06-19T11:45:16.540Z,16
2023-06-19T11:47:47.206Z,14
2023-06-19T11:50:18.091Z,16
2023-06-19T11:52:48.706Z,13
2023-06-19T11:55:19.348Z,15
2023-06-19T11:57:50.091Z,16
2023-06-19T12:00:22.134Z,15
2023-06-19T12:02:52.573Z,16
2023-06-19T12:05:22.977Z,16
2023-06-19T12:07:53.622Z,16
2023-06-19T12:10:24.953Z,16
2023-06-19T12:12:57.013Z,18
2023-06-19T12:15:29.250Z,16
2023-06-19T12:17:59.936Z,16
2023-06-19T12:20:30.547Z,16
2023-06-19T12:23:01.187Z,16
2023-06-19T12:25:32.877Z,12
2023-06-19T12:28:03.304Z,16
2023-06-19T12:30:34.318Z,16
2023-06-19T12:33:04.882Z,16
2023-06-19T12:35:35.569Z,16
2023-06-19T12:38:07.569Z,16
2023-06-19T12:40:37.255Z,16
2023-06-19T12:43:07.943Z,15
2023-06-19T12:45:38.755Z,16
2023-06-19T12:48:10.190Z,16
2023-06-19T12:50:40.826Z,16
2023-06-19T12:53:11.312Z,16
2023-06-19T12:55:52.435Z,16
2023-06-19T12:58:14.292Z,16
2023-06-19T13:00:45.540Z,16
2023-06-19T13:03:16.597Z,16
2023-06-19T13:05:46.947Z,16
2023-06-19T13:08:18.189Z,16
2023-06-19T13:10:48.608Z,16
2023-06-19T13:13:19.690Z,16
2023-06-19T13:15:50.506Z,17
2023-06-19T13:18:21.527Z,16
2023-06-19T13:20:51.792Z,16
2023-06-19T13:23:22.368Z,13
2023-06-19T13:25:53.154Z,16
2023-06-19T13:28:25.653Z,12
2023-06-19T13:30:56.166Z,20
2023-06-19T13:33:30.504Z,24
2023-06-19T13:36:00.896Z,16
2023-06-19T13:38:31.647Z,16
2023-06-19T13:41:02.280Z,16
2023-06-19T13:43:32.801Z,16
2023-06-19T13:46:03.354Z,16
2023-06-19T13:48:34.258Z,16
2023-06-19T13:51:05.105Z,14
2023-06-19T13:53:36.207Z,16
2023-06-19T13:56:06.758Z,16
2023-06-19T13:58:37.772Z,16
2023-06-19T14:01:08.429Z,16
2023-06-19T14:03:38.745Z,13
2023-06-19T14:06:09.657Z,16
2023-06-19T14:08:40.335Z,13
2023-06-19T14:11:11.049Z,15
2023-06-19T14:13:41.590Z,16
2023-06-19T14:16:12.209Z,16
2023-06-19T14:18:42.964Z,16
2023-06-19T14:21:13.319Z,16
2023-06-19T14:23:44.204Z,16
2023-06-19T14:26:14.686Z,16
2023-06-19T14:28:46.120Z,16
2023-06-19T14:31:16.700Z,16
2023-06-19T14:33:47.293Z,16
2023-06-19T14:36:17.782Z,18
2023-06-19T14:38:51.589Z,16
2023-06-19T14:41:22.072Z,16
2023-06-19T14:43:54.904Z,16
2023-06-19T14:46:38.054Z,16
2023-06-19T14:48:55.838Z,16
2023-06-19T14:51:26.477Z,16
2023-06-19T14:53:57.279Z,13
2023-06-19T14:56:27.937Z,16
2023-06-19T14:58:58.614Z,16
2023-06-19T15:01:30.070Z,16
2023-06-19T15:04:01.920Z,16
2023-06-19T15:06:32.329Z,13
2023-06-19T15:09:04.302Z,19
2023-06-19T15:11:33.333Z,16
2023-06-19T15:14:03.854Z,17
2023-06-19T15:16:36.763Z,19
2023-06-19T15:19:05.265Z,20
2023-06-19T15:21:35.883Z,16
2023-06-19T15:24:06.431Z,16
2023-06-19T15:26:39.971Z,16
2023-06-19T15:29:09.960Z,16
2023-06-19T15:31:41.017Z,16
2023-06-19T15:34:11.612Z,16
2023-06-19T15:36:43.009Z,16
2023-06-19T15:39:13.846Z,16
2023-06-19T15:41:45.432Z,17
2023-06-19T15:44:16.589Z,16
2023-06-19T15:46:47.272Z,16
2023-06-19T15:49:19.590Z,16
2023-06-19T15:51:51.958Z,16
2023-06-19T15:54:22.654Z,16
2023-06-19T15:56:53.461Z,16
2023-06-19T15:59:25.101Z,19
2023-06-19T16:01:57.055Z,20
2023-06-19T16:04:27.356Z,18
2023-06-19T16:06:58.345Z,30
2023-06-19T16:09:32.825Z,24
2023-06-19T16:12:02.647Z,19
2023-06-19T16:14:33.538Z,20
2023-06-19T16:17:03.953Z,20
2023-06-19T16:19:34.969Z,20
2023-06-19T16:22:05.137Z,20
2023-06-19T16:24:35.798Z,16
2023-06-19T16:27:06.433Z,16
2023-06-19T16:29:37.130Z,16
2023-06-19T16:32:09.977Z,16
2023-06-19T16:34:39.296Z,17
2023-06-19T16:37:11.495Z,28
2023-06-19T16:39:41.753Z,26
2023-06-19T16:42:12.420Z,20
2023-06-19T16:44:42.882Z,20
2023-06-19T16:47:13.560Z,20
2023-06-19T16:49:44.119Z,17
2023-06-19T16:52:16.777Z,20
2023-06-19T16:54:46.091Z,20
2023-06-19T16:57:20.471Z,20
2023-06-19T16:59:51.168Z,16
2023-06-19T17:02:21.833Z,16
2023-06-19T17:04:53.849Z,16
2023-06-19T17:07:24.193Z,20
2023-06-19T17:09:56.267Z,17
2023-06-19T17:12:27.139Z,16
2023-06-19T17:14:57.747Z,20
2023-06-19T17:17:28.321Z,16
2023-06-19T17:20:00.237Z,20
2023-06-19T17:22:30.852Z,20
2023-06-19T17:25:00.048Z,19
2023-06-19T17:27:31.247Z,18
2023-06-19T17:30:01.889Z,19
2023-06-19T17:32:32.980Z,20
2023-06-19T17:35:03.979Z,20
2023-06-19T17:37:34.681Z,20
2023-06-19T17:40:05.571Z,20
2023-06-19T17:42:36.418Z,20
2023-06-19T17:45:07.065Z,28
2023-06-19T17:47:36.149Z,26
2023-06-19T17:50:06.585Z,20
2023-06-19T17:52:37.251Z,20
2023-06-19T17:55:08.087Z,21
2023-06-19T17:57:38.698Z,20
2023-06-19T18:00:09.735Z,21
2023-06-19T18:02:40.151Z,24
2023-06-19T18:05:11.200Z,20
2023-06-19T18:07:42.011Z,20
2023-06-19T18:10:14.592Z,20
2023-06-19T18:12:44.766Z,20
2023-06-19T18:15:15.755Z,24
2023-06-19T18:17:46.546Z,20
2023-06-19T18:20:16.972Z,24
2023-06-19T18:22:47.393Z,24
2023-06-19T18:25:17.872Z,24
2023-06-19T18:27:48.749Z,24
2023-06-19T18:30:20.843Z,24
2023-06-19T18:32:51.838Z,24
2023-06-19T18:35:22.586Z,24
2023-06-19T18:37:53.609Z,24
2023-06-19T18:40:25.049Z,24
2023-06-19T18:42:55.536Z,24
2023-06-19T18:45:25.927Z,24
2023-06-19T18:47:56.389Z,24
2023-06-19T18:50:27.523Z,24
2023-06-19T18:52:59.961Z,24
2023-06-19T18:55:30.185Z,24
2023-06-19T18:58:00.914Z,24
2023-06-19T19:00:32.742Z,24
2023-06-19T19:03:03.297Z,24
2023-06-19T19:05:33.769Z,24
2023-06-19T19:08:04.354Z,24
2023-06-19T19:10:35.301Z,24
2023-06-19T19:13:05.895Z,24
2023-06-19T19:15:38.123Z,24
2023-06-19T19:18:09.741Z,24
2023-06-19T19:20:40.343Z,24
2023-06-19T19:23:11.266Z,28
2023-06-19T19:25:42.335Z,24
2023-06-19T19:28:14.151Z,28
2023-06-19T19:30:45.645Z,26
2023-06-19T19:33:17.637Z,24
2023-06-19T19:35:47.852Z,28
2023-06-19T19:38:18.353Z,28
2023-06-19T19:40:48.846Z,25
2023-06-19T19:43:19.361Z,25
2023-06-19T19:45:50.220Z,24
2023-06-19T19:48:20.807Z,24
2023-06-19T19:50:51.598Z,24
2023-06-19T19:53:22.122Z,28
2023-06-19T19:55:52.211Z,28
2023-06-19T19:58:22.324Z,28
2023-06-19T20:00:52.544Z,28
2023-06-19T20:03:22.932Z,28
2023-06-19T20:05:53.556Z,28
2023-06-19T20:08:23.933Z,28
2023-06-19T20:10:54.367Z,28
2023-06-19T20:13:24.756Z,28
2023-06-19T20:15:55.132Z,24
2023-06-19T20:18:28.170Z,28
2023-06-19T20:20:57.017Z,28
2023-06-19T20:23:32.266Z,28
2023-06-19T20:26:02.940Z,28
2023-06-19T20:28:33.361Z,28
2023-06-19T20:31:04.503Z,28
2023-06-19T20:33:35.061Z,28
2023-06-19T20:36:10.202Z,32
2023-06-19T20:38:41.489Z,31
2023-06-19T20:41:12.913Z,32
2023-06-19T20:43:42.717Z,30
2023-06-19T20:46:14.004Z,32
2023-06-19T20:48:46.076Z,28
2023-06-19T20:51:16.512Z,28
2023-06-19T20:53:46.671Z,28
2023-06-19T20:56:18.899Z,28
2023-06-19T20:58:50.053Z,28
2023-06-19T21:01:18.945Z,28
2023-06-19T21:03:49.563Z,28
2023-06-19T21:06:20.042Z,28
2023-06-19T21:08:51.936Z,28
2023-06-19T21:11:22.332Z,28
2023-06-19T21:13:55.009Z,28
2023-06-19T21:16:25.659Z,28
2023-06-19T21:18:56.970Z,28
2023-06-19T21:21:28.247Z,28
2023-06-19T21:24:01.479Z,28
2023-06-19T21:26:33.510Z,28
2023-06-19T21:29:04.400Z,26
2023-06-19T21:31:34.960Z,27
2023-06-19T21:34:07.762Z,28
2023-06-19T21:36:38.215Z,28
2023-06-19T21:39:09.110Z,28
2023-06-19T21:41:39.506Z,24
2023-06-19T21:44:10.116Z,27
2023-06-19T21:46:42.208Z,28
2023-06-19T21:49:12.760Z,25
2023-06-19T21:51:43.483Z,24
2023-06-19T21:54:13.710Z,24
2023-06-19T21:56:44.219Z,28
2023-06-19T21:59:14.720Z,27
2023-06-19T22:01:45.323Z,24
2023-06-19T22:04:16.283Z,24
2023-06-19T22:06:46.753Z,28
2023-06-19T22:09:17.372Z,28
2023-06-19T22:11:48.472Z,28
2023-06-19T22:14:21.234Z,28
2023-06-19T22:16:51.751Z,28
2023-06-19T22:19:22.717Z,28
2023-06-19T22:21:53.496Z,28
2023-06-19T22:24:24.467Z,28
2023-06-19T22:26:55.436Z,28
2023-06-19T22:29:26.311Z,28
2023-06-19T22:31:56.935Z,28
2023-06-19T22:34:28.272Z,24
2023-06-19T22:36:58.875Z,26
2023-06-19T22:39:31.461Z,27
2023-06-19T22:42:02.172Z,24
2023-06-19T22:44:33.191Z,24
2023-06-19T22:47:03.606Z,25
2023-06-19T22:49:33.913Z,24
2023-06-19T22:52:04.515Z,24
2023-06-19T22:54:36.219Z,28
2023-06-19T22:57:11.791Z,27
2023-06-19T22:59:42.960Z,24
2023-06-19T23:02:13.646Z,24
2023-06-19T23:04:45.084Z,24
2023-06-19T23:07:15.710Z,24
2023-06-19T23:09:46.478Z,24
2023-06-19T23:12:17.696Z,24
2023-06-19T23:14:48.407Z,24
2023-06-19T23:17:19.023Z,25
2023-06-19T23:19:50.304Z,24
2023-06-19T23:22:21.283Z,24
2023-06-19T23:24:52.181Z,24
2023-06-19T23:27:22.833Z,27
2023-06-19T23:29:54.664Z,24
2023-06-19T23:32:25.409Z,27
2023-06-19T23:34:57.308Z,25
2023-06-19T23:37:28.063Z,25
2023-06-19T23:39:58.562Z,24
2023-06-19T23:42:29.379Z,24
2023-06-19T23:45:00.857Z,25
2023-06-19T23:47:31.205Z,24
2023-06-19T23:50:01.811Z,24
2023-06-19T23:52:42.558Z,24
2023-06-19T23:55:03.147Z,24
2023-06-19T23:57:33.740Z,28
